Time;durP1;ratioP1;P1;durP2;ratioP2;P2;SDS_P1;SDS_P2;PMS_P1;PMS_P2;Temp;Humidity;BMP_temperature;BMP_pressure;BME280_temperature;BME280_humidity;BME280_pressure;Samples;Min_cycle;Max_cycle;Signal;HPM_P1;HPM_P2
2023/07/31 00:00:12;;;;;;;0.00;0.00;;;;;;;;;;7377412;19;20140;-68
2023/07/31 00:02:41;;;;;;;0.00;0.00;;;;;;;;;;7378908;19;20144;-67
2023/07/31 00:05:11;;;;;;;0.00;0.00;;;;;;;;;;7378940;19;20172;-69
2023/07/31 00:07:40;;;;;;;0.00;0.00;;;;;;;;;;7381733;19;20135;-69
2023/07/31 00:10:10;;;;;;;0.00;0.00;;;;;;;;;;7379155;19;20136;-68
2023/07/31 00:12:39;;;;;;;0.00;0.00;;;;;;;;;;7380811;19;20505;-68
2023/07/31 00:15:08;;;;;;;0.00;0.00;;;;;;;;;;7379206;19;20136;-67
2023/07/31 00:17:40;;;;;;;0.00;0.00;;;;;;;;;;7380465;19;20165;-67
2023/07/31 00:20:09;;;;;;;0.00;0.00;;;;;;;;;;7377157;19;20141;-70
2023/07/31 00:22:39;;;;;;;0.00;0.00;;;;;;;;;;7381378;19;20132;-68
2023/07/31 00:25:08;;;;;;;0.00;0.00;;;;;;;;;;7379922;19;20132;-67
2023/07/31 00:27:37;;;;;;;0.00;0.00;;;;;;;;;;7381691;19;20180;-69
2023/07/31 00:30:06;;;;;;;0.00;0.00;;;;;;;;;;7378855;19;20168;-72
2023/07/31 00:32:35;;;;;;;0.00;0.00;;;;;;;;;;7380984;19;20157;-68
2023/07/31 00:35:08;;;;;;;0.00;0.00;;;;;;;;;;7380335;19;20158;-68
2023/07/31 00:37:37;;;;;;;0.00;0.00;;;;;;;;;;7378810;19;20153;-68
2023/07/31 00:40:06;;;;;;;0.00;0.00;;;;;;;;;;7371946;19;20140;-71
2023/07/31 00:42:35;;;;;;;0.00;0.00;;;;;;;;;;7377585;19;20152;-70
2023/07/31 00:45:04;;;;;;;0.00;0.00;;;;;;;;;;7377989;19;20141;-69
2023/07/31 00:47:33;;;;;;;0.00;0.00;;;;;;;;;;7378482;19;20160;-68
2023/07/31 00:50:02;;;;;;;0.00;0.00;;;;;;;;;;7379496;19;20148;-69
2023/07/31 00:52:33;;;;;;;0.00;0.00;;;;;;;;;;7377675;19;20171;-69
2023/07/31 00:55:03;;;;;;;0.00;0.00;;;;;;;;;;7377631;19;20156;-69
2023/07/31 00:57:34;;;;;;;0.00;0.00;;;;;;;;;;7378833;19;20148;-68
2023/07/31 01:00:03;;;;;;;0.00;0.00;;;;;;;;;;7377812;19;20145;-70
2023/07/31 01:02:32;;;;;;;0.00;0.00;;;;;;;;;;7374650;19;20185;-69
2023/07/31 01:05:01;;;;;;;0.00;0.00;;;;;;;;;;7377301;19;20238;-69
2023/07/31 01:07:32;;;;;;;0.00;0.00;;;;;;;;;;7380543;19;20161;-68
2023/07/31 01:10:07;;;;;;;0.00;0.00;;;;;;;;;;7376223;19;20178;-68
2023/07/31 01:12:37;;;;;;;0.00;0.00;;;;;;;;;;7378907;19;20144;-69
2023/07/31 01:15:10;;;;;;;0.00;0.00;;;;;;;;;;7376990;19;20188;-69
2023/07/31 01:17:39;;;;;;;0.00;0.00;;;;;;;;;;7377613;19;20156;-68
2023/07/31 01:20:11;;;;;;;0.00;0.00;;;;;;;;;;7375408;19;20165;-68
2023/07/31 01:22:58;;;;;;;0.00;0.00;;;;;;;;;;7377549;19;20156;-68
2023/07/31 01:25:40;;;;;;;0.00;0.00;;;;;;;;;;7377686;19;20156;-68
2023/07/31 01:28:14;;;;;;;0.00;0.00;;;;;;;;;;7374891;19;20792;-69
2023/07/31 01:30:45;;;;;;;0.00;0.00;;;;;;;;;;7377898;19;20184;-68
2023/07/31 01:33:14;;;;;;;0.00;0.00;;;;;;;;;;7383602;19;20156;-68
2023/07/31 01:35:45;;;;;;;0.00;0.00;;;;;;;;;;7384231;19;20167;-69
2023/07/31 01:38:14;;;;;;;0.00;0.00;;;;;;;;;;7383479;19;20145;-69
2023/07/31 01:40:45;;;;;;;0.00;0.00;;;;;;;;;;7381840;19;20176;-69
2023/07/31 01:43:17;;;;;;;0.00;0.00;;;;;;;;;;7384447;19;20638;-66
2023/07/31 01:45:47;;;;;;;0.00;0.00;;;;;;;;;;7385083;19;20173;-68
2023/07/31 01:48:16;;;;;;;0.00;0.00;;;;;;;;;;7386001;19;20140;-66
2023/07/31 01:50:45;;;;;;;0.00;0.00;;;;;;;;;;7383794;19;20192;-70
2023/07/31 01:53:14;;;;;;;0.00;0.00;;;;;;;;;;7384873;19;20141;-67
2023/07/31 01:55:43;;;;;;;0.00;0.00;;;;;;;;;;7384209;19;20161;-67
2023/07/31 01:58:12;;;;;;;0.00;0.00;;;;;;;;;;7383689;19;20149;-70
2023/07/31 02:00:44;;;;;;;0.00;0.00;;;;;;;;;;7380588;19;20248;-69
2023/07/31 02:03:13;;;;;;;0.00;0.00;;;;;;;;;;7383909;19;20144;-68
2023/07/31 02:05:47;;;;;;;0.00;0.00;;;;;;;;;;7384809;19;20160;-66
2023/07/31 02:08:16;;;;;;;0.00;0.00;;;;;;;;;;7386274;19;20144;-68
2023/07/31 02:10:45;;;;;;;0.00;0.00;;;;;;;;;;7382741;19;20180;-67
2023/07/31 02:13:15;;;;;;;0.00;0.00;;;;;;;;;;7381793;19;20149;-68
2023/07/31 02:15:46;;;;;;;0.00;0.00;;;;;;;;;;7383581;19;20195;-66
2023/07/31 02:18:15;;;;;;;0.00;0.00;;;;;;;;;;7382637;19;20148;-67
2023/07/31 02:20:46;;;;;;;0.00;0.00;;;;;;;;;;7381681;19;20160;-69
2023/07/31 02:23:15;;;;;;;0.00;0.00;;;;;;;;;;7382205;19;20157;-70
2023/07/31 02:25:46;;;;;;;0.00;0.00;;;;;;;;;;7383669;19;20166;-69
2023/07/31 02:28:15;;;;;;;0.00;0.00;;;;;;;;;;7382194;19;20153;-70
2023/07/31 02:30:49;;;;;;;0.00;0.00;;;;;;;;;;7383430;19;20153;-70
2023/07/31 02:33:18;;;;;;;0.00;0.00;;;;;;;;;;7382158;19;20192;-68
2023/07/31 02:35:49;;;;;;;0.00;0.00;;;;;;;;;;7384907;19;20226;-67
2023/07/31 02:38:18;;;;;;;0.00;0.00;;;;;;;;;;7382121;19;20152;-69
2023/07/31 02:40:48;;;;;;;0.00;0.00;;;;;;;;;;7382336;19;20156;-70
2023/07/31 02:43:17;;;;;;;0.00;0.00;;;;;;;;;;7377647;19;20151;-67
2023/07/31 02:45:46;;;;;;;0.00;0.00;;;;;;;;;;7382773;19;20266;-72
2023/07/31 02:48:18;;;;;;;0.00;0.00;;;;;;;;;;7380760;19;20161;-70
2023/07/31 02:50:46;;;;;;;0.00;0.00;;;;;;;;;;7383624;19;20160;-70
2023/07/31 02:53:15;;;;;;;0.00;0.00;;;;;;;;;;7380879;19;20160;-67
2023/07/31 02:55:44;;;;;;;0.00;0.00;;;;;;;;;;7382485;19;20160;-69
2023/07/31 02:58:13;;;;;;;0.00;0.00;;;;;;;;;;7380970;19;20151;-69
2023/07/31 03:00:45;;;;;;;0.00;0.00;;;;;;;;;;7380176;19;20176;-69
2023/07/31 03:03:14;;;;;;;0.00;0.00;;;;;;;;;;7383121;19;20133;-68
2023/07/31 03:05:46;;;;;;;0.00;0.00;;;;;;;;;;7383396;19;20483;-68
2023/07/31 03:08:14;;;;;;;0.00;0.00;;;;;;;;;;7382749;19;20141;-68
2023/07/31 03:10:44;;;;;;;0.00;0.00;;;;;;;;;;7380612;19;20184;-71
2023/07/31 03:13:13;;;;;;;0.00;0.00;;;;;;;;;;7382183;19;20143;-69
2023/07/31 03:15:45;;;;;;;0.00;0.00;;;;;;;;;;7382863;19;20141;-69
2023/07/31 03:18:14;;;;;;;0.00;0.00;;;;;;;;;;7380548;19;20156;-68
2023/07/31 03:20:48;;;;;;;0.00;0.00;;;;;;;;;;7383588;19;20259;-68
2023/07/31 03:23:17;;;;;;;0.00;0.00;;;;;;;;;;7380600;19;20161;-69
2023/07/31 03:25:58;;;;;;;0.00;0.00;;;;;;;;;;7383933;19;20136;-67
2023/07/31 03:28:30;;;;;;;0.00;0.00;;;;;;;;;;7382375;19;20158;-71
2023/07/31 03:30:59;;;;;;;0.00;0.00;;;;;;;;;;7380043;19;20184;-71
2023/07/31 03:33:28;;;;;;;0.00;0.00;;;;;;;;;;7381768;19;20129;-66
2023/07/31 03:36:00;;;;;;;0.00;0.00;;;;;;;;;;7381950;19;20148;-69
2023/07/31 03:38:29;;;;;;;0.00;0.00;;;;;;;;;;7380254;19;20157;-69
2023/07/31 03:40:58;;;;;;;0.00;0.00;;;;;;;;;;7381780;19;20156;-69
2023/07/31 03:43:29;;;;;;;0.00;0.00;;;;;;;;;;7380658;19;20192;-68
2023/07/31 03:45:57;;;;;;;0.00;0.00;;;;;;;;;;7383407;19;20143;-68
2023/07/31 03:48:27;;;;;;;0.00;0.00;;;;;;;;;;7380119;19;20156;-69
2023/07/31 03:50:57;;;;;;;0.00;0.00;;;;;;;;;;7379856;19;20194;-68
2023/07/31 03:53:28;;;;;;;0.00;0.00;;;;;;;;;;7380166;19;20148;-67
2023/07/31 03:55:57;;;;;;;0.00;0.00;;;;;;;;;;7380794;19;20531;-68
2023/07/31 03:58:26;;;;;;;0.00;0.00;;;;;;;;;;7381147;19;20133;-69
2023/07/31 04:00:55;;;;;;;0.00;0.00;;;;;;;;;;7380829;19;20148;-69
2023/07/31 04:03:25;;;;;;;0.00;0.00;;;;;;;;;;7379870;19;20156;-68
2023/07/31 04:05:54;;;;;;;0.00;0.00;;;;;;;;;;7381972;19;20141;-69
2023/07/31 04:08:22;;;;;;;0.00;0.00;;;;;;;;;;7382356;19;20141;-69
2023/07/31 04:10:54;;;;;;;0.00;0.00;;;;;;;;;;7378914;19;20180;-68
2023/07/31 04:13:27;;;;;;;0.00;0.00;;;;;;;;;;7380656;19;20137;-68
2023/07/31 04:15:56;;;;;;;0.00;0.00;;;;;;;;;;7379613;19;20211;-70
2023/07/31 04:18:25;;;;;;;0.00;0.00;;;;;;;;;;7378849;19;20152;-68
2023/07/31 04:20:54;;;;;;;0.00;0.00;;;;;;;;;;7379549;19;20173;-70
2023/07/31 04:23:26;;;;;;;0.00;0.00;;;;;;;;;;7377351;19;20148;-70
2023/07/31 04:25:58;;;;;;;0.00;0.00;;;;;;;;;;7381250;19;20177;-70
2023/07/31 04:28:27;;;;;;;0.00;0.00;;;;;;;;;;7380210;19;20133;-69
2023/07/31 04:30:56;;;;;;;0.00;0.00;;;;;;;;;;7377923;19;20187;-70
2023/07/31 04:33:25;;;;;;;0.00;0.00;;;;;;;;;;7380604;19;20133;-69
2023/07/31 04:35:55;;;;;;;0.00;0.00;;;;;;;;;;7379243;19;20152;-71
2023/07/31 04:38:24;;;;;;;0.00;0.00;;;;;;;;;;7381013;19;20136;-68
2023/07/31 04:40:53;;;;;;;0.00;0.00;;;;;;;;;;7378215;19;20176;-72
2023/07/31 04:43:25;;;;;;;0.00;0.00;;;;;;;;;;7378025;19;20164;-70
2023/07/31 04:45:54;;;;;;;0.00;0.00;;;;;;;;;;7382362;19;20235;-70
2023/07/31 04:48:24;;;;;;;0.00;0.00;;;;;;;;;;7378683;19;20216;-70
2023/07/31 04:50:53;;;;;;;0.00;0.00;;;;;;;;;;7376673;19;20180;-68
2023/07/31 04:53:22;;;;;;;0.00;0.00;;;;;;;;;;7379007;19;20173;-70
2023/07/31 04:55:51;;;;;;;0.00;0.00;;;;;;;;;;7379775;19;20156;-70
2023/07/31 04:58:20;;;;;;;0.00;0.00;;;;;;;;;;7380405;19;20159;-70
2023/07/31 05:00:52;;;;;;;0.00;0.00;;;;;;;;;;7376542;19;20184;-69
2023/07/31 05:03:22;;;;;;;0.00;0.00;;;;;;;;;;7379192;19;20182;-70
2023/07/31 05:05:51;;;;;;;0.00;0.00;;;;;;;;;;7381811;19;20153;-74
2023/07/31 05:08:20;;;;;;;0.00;0.00;;;;;;;;;;7386651;19;20160;-74
2023/07/31 05:10:49;;;;;;;0.00;0.00;;;;;;;;;;7386107;19;20212;-73
2023/07/31 05:13:18;;;;;;;0.00;0.00;;;;;;;;;;7387532;19;20145;-74
2023/07/31 05:15:44;;;;;;;0.00;0.00;;;;;;;;;;7388017;19;20133;-73
2023/07/31 05:18:16;;;;;;;0.00;0.00;;;;;;;;;;7388493;19;20147;-72
2023/07/31 05:20:45;;;;;;;0.00;0.00;;;;;;;;;;7382069;19;20184;-72
2023/07/31 05:23:14;;;;;;;0.00;0.00;;;;;;;;;;7382667;19;20137;-74
2023/07/31 05:25:43;;;;;;;0.00;0.00;;;;;;;;;;7387209;19;20141;-72
2023/07/31 05:28:16;;;;;;;0.00;0.00;;;;;;;;;;7385672;19;20177;-75
2023/07/31 05:30:45;;;;;;;0.00;0.00;;;;;;;;;;7383250;19;20179;-70
2023/07/31 05:33:17;;;;;;;0.00;0.00;;;;;;;;;;7386194;19;20140;-71
2023/07/31 05:35:46;;;;;;;0.00;0.00;;;;;;;;;;7383421;19;20153;-71
2023/07/31 05:38:15;;;;;;;0.00;0.00;;;;;;;;;;7385752;19;20136;-71
2023/07/31 05:40:45;;;;;;;0.00;0.00;;;;;;;;;;7382722;19;20270;-72
2023/07/31 05:43:14;;;;;;;0.00;0.00;;;;;;;;;;7382491;19;20137;-72
2023/07/31 05:45:45;;;;;;;0.00;0.00;;;;;;;;;;7382996;19;20143;-72
2023/07/31 05:48:16;;;;;;;0.00;0.00;;;;;;;;;;7386169;19;20147;-72
2023/07/31 05:50:46;;;;;;;0.00;0.00;;;;;;;;;;7384308;19;20156;-73
2023/07/31 05:53:15;;;;;;;0.00;0.00;;;;;;;;;;7384834;19;20160;-72
2023/07/31 05:55:44;;;;;;;0.00;0.00;;;;;;;;;;7385749;19;20161;-72
2023/07/31 05:58:13;;;;;;;0.00;0.00;;;;;;;;;;7387346;19;20141;-72
2023/07/31 06:00:42;;;;;;;0.00;0.00;;;;;;;;;;7384059;19;20156;-72
2023/07/31 06:03:11;;;;;;;0.00;0.00;;;;;;;;;;7383629;19;20140;-71
2023/07/31 06:05:43;;;;;;;0.00;0.00;;;;;;;;;;7382393;19;20156;-71
2023/07/31 06:08:12;;;;;;;0.00;0.00;;;;;;;;;;7384043;19;20137;-71
2023/07/31 06:10:41;;;;;;;0.00;0.00;;;;;;;;;;7382783;19;20157;-73
2023/07/31 06:13:10;;;;;;;0.00;0.00;;;;;;;;;;7384604;19;20137;-73
2023/07/31 06:15:40;;;;;;;0.00;0.00;;;;;;;;;;7385105;19;20139;-73
2023/07/31 06:18:10;;;;;;;0.00;0.00;;;;;;;;;;7382809;19;20159;-77
2023/07/31 06:20:40;;;;;;;0.00;0.00;;;;;;;;;;7382472;19;20184;-74
2023/07/31 06:23:12;;;;;;;0.00;0.00;;;;;;;;;;7384076;19;20144;-73
2023/07/31 06:25:41;;;;;;;0.00;0.00;;;;;;;;;;7385274;19;20152;-72
2023/07/31 06:28:13;;;;;;;0.00;0.00;;;;;;;;;;7384335;19;20170;-73
2023/07/31 06:30:42;;;;;;;0.00;0.00;;;;;;;;;;7380501;19;20183;-72
2023/07/31 06:33:12;;;;;;;0.00;0.00;;;;;;;;;;7382131;19;20646;-71
2023/07/31 06:35:45;;;;;;;0.00;0.00;;;;;;;;;;7381597;19;20759;-71
2023/07/31 06:38:17;;;;;;;0.10;0.10;;;;;;;;;;7382219;19;20174;-71
2023/07/31 06:40:46;;;;;;;0.00;0.00;;;;;;;;;;7381955;19;20160;-73
2023/07/31 06:43:16;;;;;;;0.00;0.00;;;;;;;;;;7382468;19;20144;-72
2023/07/31 06:45:45;;;;;;;0.00;0.00;;;;;;;;;;7383590;19;20141;-73
2023/07/31 06:48:14;;;;;;;0.00;0.00;;;;;;;;;;7382344;19;20152;-73
2023/07/31 06:50:44;;;;;;;0.00;0.00;;;;;;;;;;7380389;19;20160;-72
2023/07/31 06:53:13;;;;;;;0.00;0.00;;;;;;;;;;7381354;19;20224;-74
2023/07/31 06:55:45;;;;;;;0.00;0.00;;;;;;;;;;7382954;19;20165;-73
2023/07/31 06:58:14;;;;;;;0.00;0.00;;;;;;;;;;7381695;19;20236;-72
2023/07/31 07:00:43;;;;;;;0.00;0.00;;;;;;;;;;7379649;19;20200;-71
2023/07/31 07:03:14;;;;;;;0.00;0.00;;;;;;;;;;7380053;19;20153;-71
2023/07/31 07:05:44;;;;;;;0.00;0.00;;;;;;;;;;7381942;19;20184;-72
2023/07/31 07:08:13;;;;;;;0.00;0.00;;;;;;;;;;7381882;19;20144;-73
2023/07/31 07:10:45;;;;;;;0.00;0.00;;;;;;;;;;7380538;19;20190;-72
2023/07/31 07:13:15;;;;;;;0.00;0.00;;;;;;;;;;7380670;19;20157;-73
2023/07/31 07:15:44;;;;;;;0.00;0.00;;;;;;;;;;7383823;19;20200;-70
2023/07/31 07:18:13;;;;;;;0.00;0.00;;;;;;;;;;7381816;19;20157;-72
2023/07/31 07:20:43;;;;;;;0.00;0.00;;;;;;;;;;7381781;19;20474;-72
2023/07/31 07:23:12;;;;;;;0.00;0.00;;;;;;;;;;7380735;19;20212;-72
2023/07/31 07:25:41;;;;;;;0.00;0.00;;;;;;;;;;7380490;19;20182;-72
2023/07/31 07:28:13;;;;;;;0.00;0.00;;;;;;;;;;7378892;19;20177;-71
2023/07/31 07:30:42;;;;;;;0.00;0.00;;;;;;;;;;7382025;19;20231;-71
2023/07/31 07:33:12;;;;;;;0.00;0.00;;;;;;;;;;7380790;19;20610;-71
2023/07/31 07:35:41;;;;;;;0.00;0.00;;;;;;;;;;7378937;19;20188;-71
2023/07/31 07:38:10;;;;;;;0.00;0.00;;;;;;;;;;7382987;19;20604;-71
2023/07/31 07:40:41;;;;;;;0.00;0.00;;;;;;;;;;7381099;19;20183;-70
2023/07/31 07:43:13;;;;;;;0.00;0.00;;;;;;;;;;7380637;19;20218;-71
2023/07/31 07:45:42;;;;;;;0.00;0.00;;;;;;;;;;7380316;19;20160;-71
2023/07/31 07:48:11;;;;;;;0.00;0.00;;;;;;;;;;7382251;19;20159;-71
2023/07/31 07:50:41;;;;;;;0.00;0.00;;;;;;;;;;7380251;19;20193;-71
2023/07/31 07:53:13;;;;;;;0.00;0.00;;;;;;;;;;7381534;19;20143;-73
2023/07/31 07:55:44;;;;;;;0.00;0.00;;;;;;;;;;7381222;19;20161;-72
2023/07/31 07:58:15;;;;;;;0.00;0.00;;;;;;;;;;7382440;19;20140;-73
2023/07/31 08:00:44;;;;;;;0.00;0.00;;;;;;;;;;7379490;19;20155;-71
2023/07/31 08:03:13;;;;;;;0.00;0.00;;;;;;;;;;7380026;19;20137;-71
2023/07/31 08:05:43;;;;;;;0.00;0.00;;;;;;;;;;7377262;19;20141;-71
2023/07/31 08:08:12;;;;;;;0.00;0.00;;;;;;;;;;7379073;19;20239;-71
2023/07/31 08:10:41;;;;;;;0.00;0.00;;;;;;;;;;7379652;19;20153;-74
2023/07/31 08:13:10;;;;;;;0.00;0.00;;;;;;;;;;7380148;19;20185;-71
2023/07/31 08:15:44;;;;;;;0.00;0.00;;;;;;;;;;7378987;19;20180;-72
2023/07/31 08:18:13;;;;;;;0.00;0.00;;;;;;;;;;7381071;19;20132;-72
2023/07/31 08:20:42;;;;;;;0.00;0.00;;;;;;;;;;7377691;19;20188;-71
2023/07/31 08:23:13;;;;;;;0.00;0.00;;;;;;;;;;7378714;19;20163;-72
2023/07/31 08:25:42;;;;;;;0.00;0.00;;;;;;;;;;7381192;19;20144;-70
2023/07/31 08:28:15;;;;;;;0.00;0.00;;;;;;;;;;7379623;19;20160;-74
2023/07/31 08:30:47;;;;;;;0.00;0.00;;;;;;;;;;7378177;19;20201;-73
2023/07/31 08:33:16;;;;;;;0.00;0.00;;;;;;;;;;7379612;19;20148;-74
2023/07/31 08:35:45;;;;;;;0.00;0.00;;;;;;;;;;7379505;19;20233;-72
2023/07/31 08:38:15;;;;;;;0.00;0.00;;;;;;;;;;7381707;19;20148;-72
2023/07/31 08:40:44;;;;;;;0.00;0.00;;;;;;;;;;7383906;19;20180;-73
2023/07/31 08:43:13;;;;;;;0.00;0.00;;;;;;;;;;7385969;19;20155;-71
2023/07/31 08:45:45;;;;;;;0.00;0.00;;;;;;;;;;7389606;19;20136;-71
2023/07/31 08:48:19;;;;;;;0.00;0.00;;;;;;;;;;7386402;19;20160;-73
2023/07/31 08:50:48;;;;;;;0.00;0.00;;;;;;;;;;7383325;19;20187;-70
2023/07/31 08:53:17;;;;;;;0.00;0.00;;;;;;;;;;7386885;19;20194;-74
2023/07/31 08:55:47;;;;;;;0.00;0.00;;;;;;;;;;7386194;19;20180;-73
2023/07/31 08:58:16;;;;;;;0.00;0.00;;;;;;;;;;7387155;19;20157;-75
2023/07/31 09:00:46;;;;;;;0.00;0.00;;;;;;;;;;7387574;19;20149;-72
2023/07/31 09:03:20;;;;;;;0.00;0.00;;;;;;;;;;7385873;19;20168;-72
2023/07/31 09:05:49;;;;;;;0.00;0.00;;;;;;;;;;7384893;19;20155;-74
2023/07/31 09:08:24;;;;;;;0.00;0.00;;;;;;;;;;7389557;19;20137;-70
2023/07/31 09:10:52;;;;;;;0.00;0.00;;;;;;;;;;7386658;19;20175;-72
2023/07/31 09:13:21;;;;;;;0.00;0.00;;;;;;;;;;7385385;19;20141;-71
2023/07/31 09:15:50;;;;;;;0.00;0.00;;;;;;;;;;7384754;19;20234;-71
2023/07/31 09:18:23;;;;;;;0.00;0.00;;;;;;;;;;7387359;19;20136;-75
2023/07/31 09:21:04;;;;;;;0.00;0.00;;;;;;;;;;7384525;19;20171;-70
2023/07/31 09:23:44;;;;;;;0.00;0.00;;;;;;;;;;7386412;19;20159;-70
2023/07/31 09:26:13;;;;;;;0.00;0.00;;;;;;;;;;7386510;19;20163;-74
2023/07/31 09:28:42;;;;;;;0.00;0.00;;;;;;;;;;7385981;19;20137;-72
2023/07/31 09:31:11;;;;;;;0.00;0.00;;;;;;;;;;7382841;19;20211;-74
2023/07/31 09:33:57;;;;;;;0.00;0.00;;;;;;;;;;7385627;19;20158;-74
2023/07/31 09:36:26;;;;;;;0.00;0.00;;;;;;;;;;7387743;19;20165;-71
2023/07/31 09:38:55;;;;;;;0.00;0.00;;;;;;;;;;7384083;19;20170;-74
2023/07/31 09:41:24;;;;;;;0.00;0.00;;;;;;;;;;7384782;19;20652;-72
2023/07/31 09:43:56;;;;;;;0.00;0.00;;;;;;;;;;7383771;19;20628;-74
2023/07/31 09:46:25;;;;;;;0.00;0.00;;;;;;;;;;7385179;19;20148;-74
2023/07/31 09:49:06;;;;;;;0.00;0.00;;;;;;;;;;7382486;19;20518;-74
2023/07/31 09:51:38;;;;;;;0.00;0.00;;;;;;;;;;7382090;19;20149;-77
2023/07/31 09:54:12;;;;;;;0.00;0.00;;;;;;;;;;7385318;19;20137;-71
2023/07/31 09:56:45;;;;;;;0.00;0.00;;;;;;;;;;7383306;19;20155;-70
2023/07/31 09:59:15;;;;;;;0.00;0.00;;;;;;;;;;7384623;19;20139;-70
2023/07/31 10:01:45;;;;;;;0.00;0.00;;;;;;;;;;7382095;19;20159;-70
2023/07/31 10:04:19;;;;;;;0.00;0.00;;;;;;;;;;7386555;19;20152;-69
2023/07/31 10:06:50;;;;;;;0.00;0.00;;;;;;;;;;7389100;19;20156;-70
2023/07/31 10:09:19;;;;;;;0.00;0.00;;;;;;;;;;7392729;19;20152;-70
2023/07/31 10:11:52;;;;;;;0.00;0.00;;;;;;;;;;7382920;19;20149;-68
2023/07/31 10:14:21;;;;;;;0.00;0.00;;;;;;;;;;7383294;19;20158;-70
2023/07/31 10:16:51;;;;;;;0.00;0.00;;;;;;;;;;7386136;19;20137;-70
2023/07/31 10:19:23;;;;;;;0.00;0.00;;;;;;;;;;7383688;19;20164;-70
2023/07/31 10:21:53;;;;;;;0.00;0.00;;;;;;;;;;7383537;19;20149;-70
2023/07/31 10:24:22;;;;;;;0.00;0.00;;;;;;;;;;7382422;19;20177;-70
2023/07/31 10:26:54;;;;;;;0.00;0.00;;;;;;;;;;7385272;19;20141;-71
2023/07/31 10:29:25;;;;;;;0.00;0.00;;;;;;;;;;7385496;19;20144;-72
2023/07/31 10:31:55;;;;;;;0.00;0.00;;;;;;;;;;7382203;19;20150;-71
2023/07/31 10:34:26;;;;;;;0.00;0.00;;;;;;;;;;7385217;19;20145;-72
2023/07/31 10:37:22;;;;;;;0.00;0.00;;;;;;;;;;7382771;19;20156;-72
2023/07/31 10:39:59;;;;;;;0.00;0.00;;;;;;;;;;7382825;19;20153;-73
2023/07/31 10:42:32;;;;;;;0.00;0.00;;;;;;;;;;7380715;19;20186;-71
2023/07/31 10:45:02;;;;;;;0.00;0.00;;;;;;;;;;7381246;19;20161;-72
2023/07/31 10:47:31;;;;;;;0.00;0.00;;;;;;;;;;7384915;19;20171;-71
2023/07/31 10:50:17;;;;;;;0.00;0.00;;;;;;;;;;7382713;19;20180;-71
2023/07/31 10:52:51;;;;;;;0.00;0.00;;;;;;;;;;7381811;19;20152;-72
2023/07/31 10:55:34;;;;;;;0.00;0.00;;;;;;;;;;7383160;19;20136;-73
2023/07/31 10:58:09;;;;;;;0.00;0.00;;;;;;;;;;7381267;19;20200;-72
2023/07/31 11:00:40;;;;;;;0.00;0.00;;;;;;;;;;7379592;19;20204;-73
2023/07/31 11:03:10;;;;;;;0.00;0.00;;;;;;;;;;7377378;19;20152;-72
2023/07/31 11:05:47;;;;;;;0.00;0.00;;;;;;;;;;7381877;19;20145;-72
2023/07/31 11:08:20;;;;;;;0.00;0.00;;;;;;;;;;7380940;19;20144;-71
2023/07/31 11:10:50;;;;;;;0.00;0.00;;;;;;;;;;7379920;19;20175;-71
2023/07/31 11:13:19;;;;;;;0.00;0.00;;;;;;;;;;7380895;19;20156;-74
2023/07/31 11:15:49;;;;;;;0.00;0.00;;;;;;;;;;7380414;19;20152;-73
2023/07/31 11:18:18;;;;;;;0.00;0.00;;;;;;;;;;7382651;19;20147;-72
2023/07/31 11:20:47;;;;;;;0.00;0.00;;;;;;;;;;7381470;19;20172;-71
2023/07/31 11:23:19;;;;;;;0.00;0.00;;;;;;;;;;7381939;19;20140;-71
2023/07/31 11:25:49;;;;;;;0.00;0.00;;;;;;;;;;7381539;19;20156;-72
2023/07/31 11:28:19;;;;;;;0.00;0.00;;;;;;;;;;7382811;19;20161;-71
2023/07/31 11:30:49;;;;;;;0.00;0.00;;;;;;;;;;7380420;19;20180;-72
2023/07/31 11:33:20;;;;;;;0.00;0.00;;;;;;;;;;7380691;19;20177;-72
2023/07/31 11:35:50;;;;;;;0.00;0.00;;;;;;;;;;7383608;19;20140;-71
2023/07/31 11:38:27;;;;;;;0.00;0.00;;;;;;;;;;7382472;19;20152;-68
2023/07/31 11:40:57;;;;;;;0.00;0.00;;;;;;;;;;7379537;19;20180;-70
2023/07/31 11:43:26;;;;;;;0.00;0.00;;;;;;;;;;7380619;19;20273;-70
2023/07/31 11:45:57;;;;;;;0.00;0.00;;;;;;;;;;7380624;19;20157;-70
2023/07/31 11:48:27;;;;;;;0.00;0.00;;;;;;;;;;7382540;19;20141;-70
2023/07/31 11:50:57;;;;;;;0.00;0.00;;;;;;;;;;7378971;19;20195;-71
2023/07/31 11:53:31;;;;;;;0.00;0.00;;;;;;;;;;7379610;19;20153;-71
2023/07/31 11:56:02;;;;;;;0.00;0.00;;;;;;;;;;7381353;19;20141;-71
2023/07/31 11:58:32;;;;;;;0.00;0.00;;;;;;;;;;7381151;19;20190;-73
2023/07/31 12:01:01;;;;;;;0.00;0.00;;;;;;;;;;7380633;19;20163;-72
2023/07/31 12:03:30;;;;;;;0.00;0.00;;;;;;;;;;7378873;19;20173;-71
2023/07/31 12:05:59;;;;;;;0.00;0.00;;;;;;;;;;7381978;19;20133;-71
2023/07/31 12:08:31;;;;;;;0.00;0.00;;;;;;;;;;7379191;19;20149;-70
2023/07/31 12:11:06;;;;;;;0.00;0.00;;;;;;;;;;7380309;19;20236;-71
2023/07/31 12:13:36;;;;;;;0.00;0.00;;;;;;;;;;7382154;19;20167;-71
2023/07/31 12:16:06;;;;;;;0.00;0.00;;;;;;;;;;7376168;19;20173;-72
2023/07/31 12:18:37;;;;;;;0.00;0.00;;;;;;;;;;7379217;19;20145;-71
2023/07/31 12:21:07;;;;;;;0.00;0.00;;;;;;;;;;7376593;19;20184;-71
2023/07/31 12:23:42;;;;;;;0.00;0.00;;;;;;;;;;7378177;19;20149;-71
2023/07/31 12:26:12;;;;;;;0.00;0.00;;;;;;;;;;7377100;19;20163;-70
2023/07/31 12:28:43;;;;;;;0.00;0.00;;;;;;;;;;7377670;19;20176;-71
2023/07/31 12:31:13;;;;;;;0.00;0.00;;;;;;;;;;7376307;19;20184;-71
2023/07/31 12:33:43;;;;;;;0.00;0.00;;;;;;;;;;7378798;19;20692;-71
2023/07/31 12:36:14;;;;;;;0.00;0.00;;;;;;;;;;7379698;19;20169;-71
2023/07/31 12:38:46;;;;;;;0.00;0.00;;;;;;;;;;7379318;19;20152;-71
2023/07/31 12:41:15;;;;;;;0.00;0.00;;;;;;;;;;7377260;19;20184;-70
2023/07/31 12:43:45;;;;;;;0.00;0.00;;;;;;;;;;7383417;19;20164;-70
2023/07/31 12:46:16;;;;;;;0.00;0.00;;;;;;;;;;7386944;19;20145;-71
2023/07/31 12:48:46;;;;;;;0.00;0.00;;;;;;;;;;7384856;19;20177;-71
2023/07/31 12:51:15;;;;;;;0.00;0.00;;;;;;;;;;7379816;19;20181;-70
2023/07/31 12:53:47;;;;;;;0.00;0.00;;;;;;;;;;7384985;19;20152;-71
2023/07/31 12:56:17;;;;;;;0.00;0.00;;;;;;;;;;7386041;19;20153;-71
2023/07/31 12:58:46;;;;;;;0.00;0.00;;;;;;;;;;7385844;19;20152;-72
2023/07/31 13:01:15;;;;;;;0.00;0.00;;;;;;;;;;7384023;19;20180;-73
2023/07/31 13:03:44;;;;;;;0.00;0.00;;;;;;;;;;7385858;19;20153;-71
2023/07/31 13:06:13;;;;;;;0.00;0.00;;;;;;;;;;7386445;19;20164;-71
2023/07/31 13:08:42;;;;;;;0.00;0.00;;;;;;;;;;7385839;19;20158;-70
2023/07/31 13:11:14;;;;;;;0.00;0.00;;;;;;;;;;7384068;19;20172;-69
2023/07/31 13:13:43;;;;;;;0.00;0.00;;;;;;;;;;7384258;19;20153;-72
2023/07/31 13:16:12;;;;;;;0.00;0.00;;;;;;;;;;7386289;19;20133;-69
2023/07/31 13:18:41;;;;;;;0.00;0.00;;;;;;;;;;7384992;19;20145;-70
2023/07/31 13:21:09;;;;;;;0.00;0.00;;;;;;;;;;7384783;19;20161;-70
2023/07/31 13:23:38;;;;;;;0.00;0.00;;;;;;;;;;7384129;19;20152;-68
2023/07/31 13:26:07;;;;;;;0.00;0.00;;;;;;;;;;7387830;19;20145;-70
2023/07/31 13:28:39;;;;;;;0.00;0.00;;;;;;;;;;7392575;19;20148;-69
2023/07/31 13:31:08;;;;;;;0.00;0.00;;;;;;;;;;7393182;19;20164;-70
2023/07/31 13:33:37;;;;;;;0.00;0.00;;;;;;;;;;7393352;19;20140;-70
2023/07/31 13:36:06;;;;;;;0.00;0.00;;;;;;;;;;7392407;19;20157;-71
2023/07/31 13:38:35;;;;;;;0.00;0.00;;;;;;;;;;7393795;19;20208;-69
2023/07/31 13:41:05;;;;;;;0.00;0.00;;;;;;;;;;7391286;19;20244;-69
2023/07/31 13:43:34;;;;;;;0.00;0.00;;;;;;;;;;7391607;19;20156;-69
2023/07/31 13:46:07;;;;;;;0.00;0.00;;;;;;;;;;7387599;19;20181;-70
2023/07/31 13:48:36;;;;;;;0.00;0.00;;;;;;;;;;7391757;19;20212;-70
2023/07/31 13:51:05;;;;;;;0.00;0.00;;;;;;;;;;7389685;19;20192;-70
2023/07/31 13:53:34;;;;;;;0.00;0.00;;;;;;;;;;7393000;19;20132;-69
2023/07/31 13:56:03;;;;;;;0.00;0.00;;;;;;;;;;7392564;19;20191;-69
2023/07/31 13:58:32;;;;;;;0.00;0.00;;;;;;;;;;7391042;19;20160;-71
2023/07/31 14:01:01;;;;;;;0.00;0.00;;;;;;;;;;7388952;19;20188;-68
2023/07/31 14:03:32;;;;;;;0.00;0.00;;;;;;;;;;7392939;19;20159;-69
2023/07/31 14:06:01;;;;;;;0.00;0.00;;;;;;;;;;7390473;19;20125;-70
2023/07/31 14:08:30;;;;;;;0.00;0.00;;;;;;;;;;7391663;19;20153;-72
2023/07/31 14:10:59;;;;;;;0.00;0.00;;;;;;;;;;7388502;19;20198;-70
2023/07/31 14:13:28;;;;;;;0.00;0.00;;;;;;;;;;7383511;19;20164;-70
2023/07/31 14:15:57;;;;;;;0.00;0.00;;;;;;;;;;7383649;19;20149;-70
2023/07/31 14:18:26;;;;;;;0.00;0.00;;;;;;;;;;7383513;19;20157;-71
2023/07/31 14:20:58;;;;;;;0.00;0.00;;;;;;;;;;7381593;19;20188;-70
2023/07/31 14:23:26;;;;;;;0.00;0.00;;;;;;;;;;7384349;19;20129;-71
2023/07/31 14:25:55;;;;;;;0.00;0.00;;;;;;;;;;7382624;19;20169;-70
2023/07/31 14:28:24;;;;;;;0.00;0.00;;;;;;;;;;7384371;19;20777;-72
2023/07/31 14:30:53;;;;;;;0.00;0.00;;;;;;;;;;7385291;19;20153;-70
2023/07/31 14:33:22;;;;;;;0.00;0.00;;;;;;;;;;7383848;19;20177;-70
2023/07/31 14:35:51;;;;;;;0.00;0.00;;;;;;;;;;7384329;19;20164;-69
2023/07/31 14:38:23;;;;;;;0.00;0.00;;;;;;;;;;7384129;19;20141;-72
2023/07/31 14:40:52;;;;;;;0.00;0.00;;;;;;;;;;7381374;19;20197;-70
2023/07/31 14:43:21;;;;;;;0.00;0.00;;;;;;;;;;7383256;19;20151;-70
2023/07/31 14:45:50;;;;;;;0.00;0.00;;;;;;;;;;7381451;19;20156;-69
2023/07/31 14:48:18;;;;;;;0.00;0.00;;;;;;;;;;7384910;19;20141;-71
2023/07/31 14:50:47;;;;;;;0.00;0.00;;;;;;;;;;7383419;19;20155;-72
2023/07/31 14:53:16;;;;;;;0.00;0.00;;;;;;;;;;7382500;19;20152;-71
2023/07/31 14:55:48;;;;;;;0.00;0.00;;;;;;;;;;7382770;19;20225;-69
2023/07/31 14:58:17;;;;;;;0.00;0.00;;;;;;;;;;7383223;19;20198;-69
2023/07/31 15:00:46;;;;;;;0.00;0.00;;;;;;;;;;7382953;19;20235;-69